Airfield :
LOGIN :

Register | Disclaimer

   EN    FR    IT 

 










Legend :    VFR   Marginal VFR   IFR   Intensive IFR   Very Intensive IFR
Visi :
Ceiling :
>= 8 km
>= 3000ft
5 to 8 km
1000 to 3000 ft
1500m to 5 km
500 to 1000 ft
800 to 1500m
200 to 500 ft
< 800m
< 200 ft
Symbols :   Thunderstorms  Fog  Heavy snow  Heavy precipitations  Wind > 20 kt
SIGMETs :     Misc.  Thunderstorms  Icing  Turbulence  Mountain Waves  Volcanic Ashes






- Airport Elevation : 25 ft
- IATA code : QCY


EGXC - RAF Coningsby

CURRENT METAR :
  • 170250Z AUTO 22020KT 9999 FEW070/// 04/02 Q0999 RERA

EXPIRED METARs :
  • 170150Z 22024KT 9999 FEW040 06/01 Q0999 RMK BLU
  • 170050Z 22019KT 9999 FEW045 05/02 Q0998 RMK BLU

TAF TAF EGXC
Valid from the 17 at 03:00 until the 17 at 21:00 UTC


170152Z 1703/1721 23020G35KT 9999 FEW040
PROB40
TEMPO 1710/1712 SCT018
BECMG 1712/1715 24015KT
PROB40
TEMPO 1712/1721 24020G30KT
PROB30
TEMPO 1712/1720 7000 SHRA SCT024



MET'MAP, your aeronautical weather chart ! - Copyright ORBIFLY December 2007 - Disclaimer

ORBIFLY MET'MAP TEAM :

Programming & Development : Alexandra Zaïnal
Concept & original design : Baudouin d'Aumeries
Assistance for programming : Marc-Olivier Méhu
Technical & hardware support : Manuel Goepfert

Contact : metmap@orbifly.com




SOURCES & CREDITS :

   NOAA